createdAt,value
2023-05-18T00:02:05.985Z,19.20
2023-05-18T00:04:35.055Z,19.04
2023-05-18T00:07:04.873Z,19.22
2023-05-18T00:09:34.029Z,18.86
2023-05-18T00:12:01.973Z,18.31
2023-05-18T00:14:29.591Z,19.01
2023-05-18T00:16:58.052Z,19.24
2023-05-18T00:19:25.492Z,19.22
2023-05-18T00:21:52.894Z,19.19
2023-05-18T00:24:20.194Z,19.09
2023-05-18T00:26:48.427Z,18.52
2023-05-18T00:29:16.163Z,18.95
2023-05-18T00:31:45.525Z,19.09
2023-05-18T00:34:13.738Z,18.98
2023-05-18T00:36:46.607Z,18.92
2023-05-18T00:39:14.163Z,18.62
2023-05-18T00:41:41.567Z,18.53
2023-05-18T00:44:09.059Z,18.34
2023-05-18T00:46:36.562Z,18.37
2023-05-18T00:49:04.326Z,18.51
2023-05-18T00:51:32.651Z,18.73
2023-05-18T00:54:00.517Z,18.70
2023-05-18T00:56:28.632Z,18.79
2023-05-18T00:58:57.418Z,18.81
2023-05-18T01:01:28.343Z,19.09
2023-05-18T01:03:57.208Z,18.86
2023-05-18T01:06:27.466Z,19.10
2023-05-18T01:08:55.235Z,19.05
2023-05-18T01:11:30.664Z,19.09
2023-05-18T01:14:11.577Z,18.80
2023-05-18T01:16:49.025Z,18.78
2023-05-18T01:19:24.149Z,18.92
2023-05-18T01:22:04.364Z,18.84
2023-05-18T01:24:36.927Z,18.84
2023-05-18T01:27:06.925Z,18.87
2023-05-18T01:29:34.815Z,19.01
2023-05-18T01:32:02.283Z,18.70
2023-05-18T01:34:29.800Z,19.41
2023-05-18T01:36:59.953Z,19.32
2023-05-18T01:39:27.350Z,19.48
2023-05-18T01:42:03.858Z,19.46
2023-05-18T01:44:34.226Z,19.33
2023-05-18T01:47:14.919Z,19.60
2023-05-18T01:49:54.577Z,19.85
2023-05-18T01:52:29.130Z,19.23
2023-05-18T01:54:57.763Z,19.58
2023-05-18T01:57:27.388Z,19.19
2023-05-18T01:59:55.533Z,19.46
2023-05-18T02:02:25.000Z,19.35
2023-05-18T02:04:52.840Z,19.01
2023-05-18T02:07:20.288Z,19.22
2023-05-18T02:09:47.729Z,19.03
2023-05-18T02:12:15.130Z,18.78
2023-05-18T02:14:42.468Z,18.95
2023-05-18T02:17:10.347Z,19.09
2023-05-18T02:19:38.380Z,19.47
2023-05-18T02:22:07.098Z,19.47
2023-05-18T02:24:34.851Z,19.21
2023-05-18T02:27:07.039Z,19.24
2023-05-18T02:29:34.359Z,19.05
2023-05-18T02:32:01.744Z,18.54
2023-05-18T02:34:33.094Z,19.14
2023-05-18T02:37:04.027Z,19.14
2023-05-18T02:39:31.656Z,19.14
2023-05-18T02:41:59.176Z,19.24
2023-05-18T02:44:26.806Z,18.92
2023-05-18T02:46:54.147Z,18.88
2023-05-18T02:49:21.517Z,19.07
2023-05-18T02:51:49.008Z,19.32
2023-05-18T02:54:16.425Z,18.95
2023-05-18T02:56:45.734Z,18.79
2023-05-18T02:59:22.565Z,18.98
2023-05-18T03:01:50.152Z,18.95
2023-05-18T03:04:17.700Z,19.02
2023-05-18T03:06:53.127Z,18.97
2023-05-18T03:09:23.176Z,19.22
2023-05-18T03:11:53.556Z,19.24
2023-05-18T03:14:21.329Z,19.11
2023-05-18T03:16:48.998Z,19.22
2023-05-18T03:19:17.956Z,19.17
2023-05-18T03:21:46.067Z,19.27
2023-05-18T03:24:14.691Z,19.43
2023-05-18T03:26:44.477Z,19.31
2023-05-18T03:29:13.661Z,19.29
2023-05-18T03:31:41.714Z,19.19
2023-05-18T03:34:10.876Z,18.94
2023-05-18T03:36:38.612Z,19.03
2023-05-18T03:39:06.868Z,19.07
2023-05-18T03:41:34.723Z,18.98
2023-05-18T03:44:02.451Z,18.62
2023-05-18T03:46:30.693Z,18.63
2023-05-18T03:48:58.434Z,18.95
2023-05-18T03:51:33.696Z,18.47
2023-05-18T03:54:01.890Z,18.64
2023-05-18T03:56:31.375Z,18.33
2023-05-18T03:58:58.844Z,18.50
2023-05-18T04:01:26.190Z,18.86
2023-05-18T04:03:56.646Z,18.89
2023-05-18T04:06:26.437Z,19.18
2023-05-18T04:08:53.884Z,19.38
2023-05-18T04:11:22.660Z,19.63
2023-05-18T04:13:50.992Z,19.55
2023-05-18T04:16:18.563Z,19.47
2023-05-18T04:18:46.023Z,19.58
2023-05-18T04:21:13.462Z,19.46
2023-05-18T04:23:40.937Z,19.26
2023-05-18T04:26:09.138Z,19.35
2023-05-18T04:28:39.606Z,18.82
2023-05-18T04:31:06.943Z,19.24
2023-05-18T04:33:34.267Z,19.06
2023-05-18T04:36:05.112Z,19.17
2023-05-18T04:38:35.713Z,19.07
2023-05-18T04:41:07.749Z,19.08
2023-05-18T04:43:36.740Z,19.42
2023-05-18T04:46:04.370Z,19.47
2023-05-18T04:48:33.495Z,19.78
2023-05-18T04:51:04.984Z,19.18
2023-05-18T04:53:33.691Z,19.40
2023-05-18T04:56:01.445Z,19.16
2023-05-18T04:58:30.512Z,19.70
2023-05-18T05:00:58.221Z,19.41
2023-05-18T05:03:25.649Z,19.77
2023-05-18T05:05:53.104Z,19.51
2023-05-18T05:08:20.347Z,19.17
2023-05-18T05:10:47.643Z,19.64
2023-05-18T05:13:15.616Z,19.94
2023-05-18T05:15:42.973Z,20.06
2023-05-18T05:18:10.418Z,20.06
2023-05-18T05:20:38.076Z,20.36
2023-05-18T05:23:05.584Z,19.89
2023-05-18T05:25:33.183Z,20.31
2023-05-18T05:28:01.904Z,20.63
2023-05-18T05:30:29.779Z,20.37
2023-05-18T05:32:57.165Z,19.15
2023-05-18T05:35:24.921Z,19.52
2023-05-18T05:37:52.192Z,20.29
2023-05-18T05:40:20.385Z,21.00
2023-05-18T05:42:47.924Z,20.45
2023-05-18T05:45:15.462Z,20.63
2023-05-18T05:47:51.138Z,20.65
2023-05-18T05:50:20.634Z,21.84
2023-05-18T05:52:49.824Z,20.95
2023-05-18T05:55:18.085Z,20.09
2023-05-18T05:57:45.403Z,20.35
2023-05-18T06:00:13.172Z,20.39
2023-05-18T06:02:51.962Z,20.25
2023-05-18T06:05:42.051Z,20.80
2023-05-18T06:08:10.985Z,21.14
2023-05-18T06:10:39.353Z,22.42
2023-05-18T06:13:07.232Z,23.11
2023-05-18T06:16:00.479Z,23.44
2023-05-18T06:18:27.920Z,23.39
2023-05-18T06:21:00.636Z,25.65
2023-05-18T06:23:28.156Z,24.91
2023-05-18T06:26:04.312Z,25.29
2023-05-18T06:28:31.595Z,24.93
2023-05-18T06:31:22.149Z,23.22
2023-05-18T06:33:51.904Z,25.39
2023-05-18T06:36:19.204Z,24.77
2023-05-18T06:38:46.490Z,27.65
2023-05-18T06:41:13.754Z,27.47
2023-05-18T06:43:41.363Z,26.00
2023-05-18T06:46:22.365Z,25.76
2023-05-18T06:48:53.213Z,26.95
2023-05-18T06:51:21.121Z,27.40
2023-05-18T06:53:48.648Z,26.57
2023-05-18T06:56:16.858Z,27.69
2023-05-18T06:58:45.607Z,27.15
2023-05-18T07:01:13.467Z,27.53
2023-05-18T07:03:41.114Z,29.16
2023-05-18T07:06:08.625Z,29.95
2023-05-18T07:08:38.529Z,28.59
2023-05-18T07:11:05.796Z,27.35
2023-05-18T07:13:33.173Z,28.79
2023-05-18T07:16:00.742Z,31.01
2023-05-18T07:18:28.119Z,27.02
2023-05-18T07:20:55.372Z,27.69
2023-05-18T07:23:23.481Z,25.56
2023-05-18T07:25:51.033Z,26.82
2023-05-18T07:28:18.358Z,25.78
2023-05-18T07:30:45.602Z,26.08
2023-05-18T07:33:12.908Z,26.42
2023-05-18T07:35:40.208Z,26.59
2023-05-18T07:38:07.577Z,29.16
2023-05-18T07:40:34.849Z,29.61
2023-05-18T07:43:02.221Z,28.99
2023-05-18T07:45:29.905Z,29.56
2023-05-18T07:47:57.809Z,30.62
2023-05-18T07:50:25.116Z,27.46
2023-05-18T07:52:52.395Z,24.57
2023-05-18T07:55:19.622Z,25.30
2023-05-18T07:57:47.342Z,26.56
2023-05-18T08:00:14.796Z,27.96
2023-05-18T08:02:43.093Z,27.39
2023-05-18T08:05:11.040Z,26.97
2023-05-18T08:07:38.710Z,28.71
2023-05-18T08:10:06.216Z,26.59
2023-05-18T08:12:33.402Z,31.03
2023-05-18T08:15:00.641Z,31.58
2023-05-18T08:17:27.881Z,31.33
2023-05-18T08:19:55.441Z,26.17
2023-05-18T08:22:22.814Z,25.48
2023-05-18T08:24:50.015Z,28.33
2023-05-18T08:27:17.292Z,27.38
2023-05-18T08:29:44.505Z,29.57
2023-05-18T08:32:12.039Z,33.02
2023-05-18T08:34:39.452Z,31.95
2023-05-18T08:37:06.817Z,33.78
2023-05-18T08:39:34.065Z,30.17
2023-05-18T08:42:02.921Z,30.24
2023-05-18T08:44:40.685Z,28.66
2023-05-18T08:47:09.780Z,29.65
2023-05-18T08:49:37.233Z,26.32
2023-05-18T08:52:04.933Z,27.03
2023-05-18T08:54:33.012Z,29.84
2023-05-18T08:57:01.053Z,30.69
2023-05-18T08:59:31.410Z,30.46
2023-05-18T09:01:59.085Z,29.41
2023-05-18T09:04:27.323Z,26.63
2023-05-18T09:06:55.066Z,29.03
2023-05-18T09:09:24.320Z,29.09
2023-05-18T09:11:52.022Z,28.72
2023-05-18T09:14:19.482Z,28.22
2023-05-18T09:16:46.845Z,26.89
2023-05-18T09:19:14.360Z,27.12
2023-05-18T09:21:41.740Z,26.54
2023-05-18T09:24:09.005Z,24.58
2023-05-18T09:26:36.939Z,25.54
2023-05-18T09:29:15.687Z,26.01
2023-05-18T09:31:43.004Z,26.37
2023-05-18T09:34:11.758Z,28.52
2023-05-18T09:36:39.754Z,29.16
2023-05-18T09:39:08.554Z,27.05
2023-05-18T09:41:37.530Z,25.52
2023-05-18T09:44:09.225Z,26.86
2023-05-18T09:46:38.060Z,26.74
2023-05-18T09:49:06.710Z,26.53
2023-05-18T09:51:38.198Z,26.67
2023-05-18T09:54:08.505Z,27.66
2023-05-18T09:56:37.435Z,28.13
2023-05-18T09:59:15.076Z,27.81
2023-05-18T10:02:01.899Z,27.57
2023-05-18T10:04:39.585Z,27.93
2023-05-18T10:07:16.711Z,26.62
2023-05-18T10:09:45.045Z,27.68
2023-05-18T10:12:13.619Z,25.82
2023-05-18T10:14:44.597Z,25.67
2023-05-18T10:17:15.689Z,25.74
2023-05-18T10:19:44.513Z,25.64
2023-05-18T10:22:14.633Z,26.16
2023-05-18T10:24:43.406Z,26.23
2023-05-18T10:27:11.205Z,27.60
2023-05-18T10:29:38.655Z,27.47
2023-05-18T10:32:07.912Z,27.93
2023-05-18T10:34:36.324Z,26.96
2023-05-18T10:37:05.071Z,28.09
2023-05-18T10:39:34.217Z,28.41
2023-05-18T10:42:02.403Z,28.86
2023-05-18T10:44:30.779Z,27.40
2023-05-18T10:46:58.370Z,27.89
2023-05-18T10:49:26.217Z,28.27
2023-05-18T10:51:56.650Z,27.47
2023-05-18T10:54:24.119Z,26.60
2023-05-18T10:56:52.402Z,26.34
2023-05-18T10:59:20.483Z,25.22
2023-05-18T11:01:48.005Z,24.70
2023-05-18T11:04:15.322Z,26.10
2023-05-18T11:06:42.769Z,27.17
2023-05-18T11:09:22.411Z,26.68
2023-05-18T11:11:54.168Z,26.42
2023-05-18T11:14:25.370Z,26.27
2023-05-18T11:16:52.764Z,26.81
2023-05-18T11:19:24.633Z,26.41
2023-05-18T11:21:53.121Z,27.14
2023-05-18T11:24:26.673Z,27.35
2023-05-18T11:26:55.173Z,27.33
2023-05-18T11:29:32.899Z,25.61
2023-05-18T11:32:04.887Z,27.19
2023-05-18T11:34:46.185Z,25.34
2023-05-18T11:37:14.632Z,25.93
2023-05-18T11:42:23.092Z,25.31
2023-05-18T11:44:55.783Z,25.31
2023-05-18T11:47:29.578Z,25.36
2023-05-18T11:49:57.414Z,25.87
2023-05-18T11:52:25.466Z,24.86
2023-05-18T11:54:53.155Z,24.94
2023-05-18T11:57:21.363Z,24.97
2023-05-18T11:59:54.647Z,25.11
2023-05-18T12:02:22.726Z,25.91
2023-05-18T12:04:56.435Z,26.37
2023-05-18T12:07:25.400Z,26.88
2023-05-18T12:09:52.774Z,25.27
2023-05-18T12:12:20.558Z,25.46
2023-05-18T12:14:53.576Z,24.45
2023-05-18T12:17:21.005Z,24.07
2023-05-18T12:19:49.183Z,25.84
2023-05-18T12:22:16.992Z,24.86
2023-05-18T12:24:44.395Z,23.99
2023-05-18T12:27:12.603Z,24.56
2023-05-18T12:29:43.194Z,24.46
2023-05-18T12:49:50.544Z,24.87
2023-05-18T12:52:21.405Z,23.87
2023-05-18T12:54:55.553Z,24.78
2023-05-18T12:57:26.729Z,24.27
2023-05-18T12:59:55.247Z,24.64
2023-05-18T13:02:30.464Z,24.13
2023-05-18T13:05:07.715Z,23.70
2023-05-18T13:07:41.897Z,23.72
2023-05-18T13:16:23.095Z,23.82
2023-05-18T13:18:56.178Z,23.70
2023-05-18T13:21:23.516Z,23.34
2023-05-18T13:23:50.741Z,22.71
2023-05-18T13:26:19.031Z,22.84
2023-05-18T13:28:46.694Z,23.52
2023-05-18T13:31:13.965Z,24.03
2023-05-18T13:33:41.353Z,23.25
2023-05-18T13:36:08.936Z,23.13
2023-05-18T13:38:37.499Z,22.75
2023-05-18T13:41:05.049Z,22.96
2023-05-18T13:43:35.313Z,23.86
2023-05-18T13:46:02.682Z,23.75
2023-05-18T13:48:30.437Z,23.96
2023-05-18T13:50:57.688Z,23.97
2023-05-18T13:53:28.526Z,24.44
2023-05-18T13:55:55.914Z,24.61
2023-05-18T13:58:23.946Z,23.55
2023-05-18T14:00:53.945Z,23.87
2023-05-18T14:03:21.553Z,23.59
2023-05-18T14:05:49.500Z,22.94
2023-05-18T14:08:19.987Z,23.56
2023-05-18T14:10:47.250Z,24.64
2023-05-18T14:13:15.359Z,23.55
2023-05-18T14:15:42.763Z,23.70
2023-05-18T14:18:10.269Z,23.65
2023-05-18T14:20:38.210Z,24.13
2023-05-18T14:23:06.538Z,24.24
2023-05-18T14:25:35.513Z,24.14
2023-05-18T14:28:02.768Z,24.37
2023-05-18T14:30:30.159Z,23.95
2023-05-18T14:32:57.515Z,23.78
2023-05-18T14:35:24.731Z,24.34
2023-05-18T14:37:51.877Z,24.63
2023-05-18T14:40:19.035Z,23.83
2023-05-18T14:42:46.134Z,23.46
2023-05-18T14:45:13.574Z,24.12
2023-05-18T14:47:40.758Z,24.07
2023-05-18T14:50:08.154Z,24.14
2023-05-18T14:52:35.852Z,24.49
2023-05-18T14:55:03.105Z,24.30
2023-05-18T14:57:30.293Z,24.07
2023-05-18T14:59:58.484Z,24.06
2023-05-18T15:02:25.842Z,23.23
2023-05-18T15:04:53.037Z,22.69
2023-05-18T15:07:20.258Z,23.35
2023-05-18T15:09:47.535Z,22.99
2023-05-18T15:12:14.807Z,22.51
2023-05-18T15:14:42.231Z,22.47
2023-05-18T15:17:09.441Z,22.91
2023-05-18T15:19:36.781Z,23.50
2023-05-18T15:22:04.148Z,23.61
2023-05-18T15:24:31.375Z,22.92
2023-05-18T15:27:01.361Z,23.40
2023-05-18T15:29:28.491Z,22.75
2023-05-18T15:31:56.104Z,23.00
2023-05-18T15:34:23.300Z,22.60
2023-05-18T15:36:50.525Z,23.06
2023-05-18T15:39:17.763Z,23.67
2023-05-18T15:41:44.871Z,23.39
2023-05-18T15:44:11.976Z,22.84
2023-05-18T15:46:39.200Z,23.37
2023-05-18T15:49:06.330Z,22.97
2023-05-18T15:51:33.468Z,22.94
2023-05-18T15:54:01.736Z,23.03
2023-05-18T15:56:29.052Z,23.89
2023-05-18T15:58:56.240Z,23.36
2023-05-18T16:01:23.505Z,23.20
2023-05-18T16:03:51.034Z,23.27
2023-05-18T16:06:18.608Z,23.50
2023-05-18T16:08:48.785Z,23.43
2023-05-18T16:11:15.888Z,23.60
2023-05-18T16:13:42.990Z,22.61
2023-05-18T16:16:14.078Z,23.56
2023-05-18T16:18:41.420Z,23.46
2023-05-18T16:21:09.425Z,23.10
2023-05-18T16:23:36.729Z,23.13
2023-05-18T16:26:05.549Z,22.72
2023-05-18T16:28:34.162Z,22.78
2023-05-18T16:31:04.984Z,23.59
2023-05-18T16:33:32.738Z,23.44
2023-05-18T16:36:00.004Z,22.71
2023-05-18T16:38:27.543Z,22.64
2023-05-18T16:40:55.050Z,22.49
2023-05-18T16:43:22.432Z,22.36
2023-05-18T16:45:49.894Z,22.85
2023-05-18T16:48:17.284Z,22.44
2023-05-18T16:50:44.498Z,22.97
2023-05-18T16:53:13.643Z,22.35
2023-05-18T16:55:40.874Z,23.01
2023-05-18T16:58:08.311Z,22.66
2023-05-18T17:00:35.765Z,23.02
2023-05-18T17:03:03.449Z,23.12
2023-05-18T17:05:30.816Z,23.38
2023-05-18T17:07:59.257Z,23.16
2023-05-18T17:10:26.558Z,23.19
2023-05-18T17:12:53.805Z,22.82
2023-05-18T17:15:21.067Z,22.65
2023-05-18T17:17:48.494Z,22.97
2023-05-18T17:20:16.964Z,22.86
2023-05-18T17:22:44.167Z,22.85
2023-05-18T17:25:11.363Z,22.42
2023-05-18T17:27:38.623Z,22.56
2023-05-18T17:30:07.281Z,22.99
2023-05-18T17:32:34.633Z,22.60
2023-05-18T17:35:02.180Z,22.29
2023-05-18T17:37:29.399Z,22.52
2023-05-18T17:40:20.163Z,22.60
2023-05-18T17:42:47.429Z,22.54
2023-05-18T17:45:14.626Z,22.71
2023-05-18T17:48:08.252Z,22.35
2023-05-18T17:50:37.904Z,22.63
2023-05-18T17:53:07.329Z,22.99
2023-05-18T17:55:34.649Z,22.71
2023-05-18T17:58:02.615Z,22.59
2023-05-18T18:00:30.387Z,22.29
2023-05-18T18:02:58.010Z,22.74
2023-05-18T18:05:26.652Z,21.97
2023-05-18T18:07:54.487Z,21.98
2023-05-18T18:10:23.026Z,21.95
2023-05-18T18:12:50.592Z,22.20
2023-05-18T18:15:19.159Z,22.09
2023-05-18T18:17:46.578Z,22.18
2023-05-18T18:20:14.052Z,21.87
2023-05-18T18:22:41.425Z,22.19
2023-05-18T18:25:08.839Z,22.22
2023-05-18T18:27:37.466Z,22.01
2023-05-18T18:30:05.528Z,21.70
2023-05-18T18:32:33.218Z,21.68
2023-05-18T18:35:00.804Z,21.89
2023-05-18T18:37:28.505Z,21.68
2023-05-18T18:39:55.964Z,21.81
2023-05-18T18:42:23.460Z,21.80
2023-05-18T18:44:57.277Z,21.87
2023-05-18T18:47:25.024Z,21.25
2023-05-18T18:49:53.528Z,21.89
2023-05-18T18:52:21.044Z,22.07
2023-05-18T18:54:48.572Z,21.41
2023-05-18T18:57:19.203Z,21.63
2023-05-18T18:59:49.358Z,21.63
2023-05-18T19:02:18.164Z,21.68
2023-05-18T19:04:45.700Z,21.64
2023-05-18T19:07:14.182Z,21.14
2023-05-18T19:09:41.762Z,21.16
2023-05-18T19:12:09.465Z,20.94
2023-05-18T19:14:36.865Z,20.97
2023-05-18T19:17:04.466Z,21.19
2023-05-18T19:19:32.739Z,21.32
2023-05-18T19:22:00.146Z,21.22
2023-05-18T19:24:28.716Z,21.07
2023-05-18T19:26:56.883Z,21.32
2023-05-18T19:29:25.417Z,21.45
2023-05-18T19:31:55.051Z,20.84
2023-05-18T19:34:47.106Z,20.42
2023-05-18T19:37:14.468Z,20.20
2023-05-18T19:39:42.035Z,20.34
2023-05-18T19:42:09.587Z,20.26
2023-05-18T19:44:37.241Z,20.30
2023-05-18T19:47:06.955Z,20.50
2023-05-18T19:49:34.758Z,20.85
2023-05-18T19:52:08.400Z,20.42
2023-05-18T19:54:36.724Z,20.20
2023-05-18T19:57:06.496Z,20.42
2023-05-18T19:59:34.113Z,20.24
2023-05-18T20:02:07.332Z,20.31
2023-05-18T20:04:50.320Z,20.30
2023-05-18T20:07:18.625Z,20.62
2023-05-18T20:09:46.872Z,20.69
2023-05-18T20:12:14.458Z,20.71
2023-05-18T20:14:46.110Z,20.66
2023-05-18T20:17:14.420Z,20.35
2023-05-18T20:19:51.156Z,20.61
2023-05-18T20:22:21.309Z,20.88
2023-05-18T20:24:49.927Z,20.78
2023-05-18T20:27:17.836Z,20.88
2023-05-18T20:29:47.397Z,20.57
2023-05-18T20:32:22.284Z,20.78
2023-05-18T20:34:50.798Z,21.12
2023-05-18T20:37:19.796Z,21.14
2023-05-18T20:39:51.015Z,21.25
2023-05-18T20:42:22.632Z,21.04
2023-05-18T20:44:53.652Z,20.82
2023-05-18T20:47:21.415Z,21.03
2023-05-18T20:49:51.812Z,21.01
2023-05-18T20:52:19.436Z,20.54
2023-05-18T20:54:47.225Z,20.84
2023-05-18T20:57:17.995Z,20.45
2023-05-18T20:59:45.857Z,20.27
2023-05-18T21:02:13.777Z,20.61
2023-05-18T21:04:41.746Z,20.46
2023-05-18T21:07:10.099Z,20.77
2023-05-18T21:09:37.862Z,20.29
2023-05-18T21:12:06.000Z,19.92
2023-05-18T21:14:34.108Z,20.27
2023-05-18T21:17:04.233Z,20.58
2023-05-18T21:29:32.134Z,21.05
2023-05-18T21:41:55.946Z,20.84
2023-05-18T21:47:00.386Z,21.09
2023-05-18T21:49:35.707Z,20.86
2023-05-18T21:55:21.439Z,20.42
2023-05-18T21:58:05.479Z,20.25
2023-05-18T22:00:37.857Z,20.42
2023-05-18T22:03:05.477Z,20.68
2023-05-18T22:05:33.555Z,20.80
2023-05-18T22:08:01.305Z,20.78
2023-05-18T22:10:30.793Z,20.65
2023-05-18T22:12:58.600Z,20.94
2023-05-18T22:15:26.427Z,20.77
2023-05-18T22:18:01.651Z,20.95
2023-05-18T22:20:29.796Z,20.66
2023-05-18T22:22:58.374Z,20.89
2023-05-18T22:25:26.242Z,20.72
2023-05-18T22:27:54.640Z,20.66
2023-05-18T22:30:24.147Z,20.53
2023-05-18T22:32:53.574Z,19.52
2023-05-18T22:35:21.233Z,20.25
2023-05-18T22:37:48.703Z,20.37
2023-05-18T22:40:16.219Z,20.51
2023-05-18T22:42:43.683Z,20.56
2023-05-18T22:45:12.560Z,20.59
2023-05-18T22:47:40.383Z,20.52
2023-05-18T22:50:08.329Z,20.42
2023-05-18T22:52:36.952Z,20.34
2023-05-18T22:55:05.835Z,20.35
2023-05-18T22:57:35.122Z,20.33
2023-05-18T23:00:06.409Z,20.26
2023-05-18T23:02:34.008Z,20.02
2023-05-18T23:05:01.532Z,20.08
2023-05-18T23:07:30.648Z,20.28
2023-05-18T23:10:00.932Z,20.20
2023-05-18T23:12:30.542Z,20.09
2023-05-18T23:15:04.330Z,19.74
2023-05-18T23:17:39.138Z,19.95
2023-05-18T23:20:06.984Z,20.34
2023-05-18T23:22:35.065Z,20.04
2023-05-18T23:25:04.565Z,19.85
2023-05-18T23:27:32.058Z,19.82
2023-05-18T23:29:59.419Z,20.17
2023-05-18T23:32:33.076Z,20.24
2023-05-18T23:35:01.153Z,20.02
2023-05-18T23:37:35.735Z,19.79
2023-05-18T23:40:05.961Z,19.89
2023-05-18T23:42:36.550Z,19.71
2023-05-18T23:45:08.000Z,19.93
2023-05-18T23:47:39.041Z,19.51
2023-05-18T23:50:08.589Z,19.88
2023-05-18T23:52:42.340Z,19.73
2023-05-18T23:55:18.837Z,19.75
2023-05-18T23:57:47.363Z,19.47
